Aérodrome :
LOGIN :

S'inscrire | Disclaimer

   EN    FR    IT 

 










Légende :    VFR   VFR Marginal   IFR   IFR Intensif   IFR Très Intensif
Visi : 
Plafond : 
>= 8 km
>= 3000ft
5 à 8 km
1000 à 3000 ft
1500m à 5 km
500 à 1000 ft
800 à 1500m
200 à 500 ft
< 800m
< 200 ft
Symboles :   Orages  Brouillard  Fortes neiges  Fortes précipitations  Vent > 20 kt
SIGMETs :   Divers  Orages  Givrage  Turbulence  Onde Orograph.  Cendres Volcan.







- Altitude de l'aérodrome : 0 ft
- Code IATA : QFR


LIRH - Frosinone Military

DERNIER METAR :
  • 231455Z 16010KT 9999 FEW035CB SCT040 21/13 Q1015 RMK BKN MON CIME INC NC VIS MIN 9999 WIND THR16 /////KT BLU

METARs EXPIRÉS :
  • 231355Z 17007KT 9999 FEW030CB SCT035 21/14 Q1016 RETS RMK BKN MON CIME INC NC VIS MIN 9999 WIND THR16 /////KT BLU
  • 231255Z 20004KT 8000 TS SCT030CB BKN035 20/13 Q1016

TAF TAF LIRH
Valide du 23 à 15h jusqu'au 24 à 00h UTC


231400Z 2315/2324 16008KT 9999 FEW015CB SCT025
PROB30
TEMPO 2315/2317 6000 SHRA
BECMG 2318/2320 VRB03KT SCT030
Pas de NOTAMs connus pour ce terrain.



MET'MAP, la Météo Aéronautique d'un coup d'oeil ! - Copyright ORBIFLY Décembre 2007 - Disclaimer

ORBIFLY MET'MAP TEAM :

Programmation & Développement : Alexandra Zaïnal
Conception & Développement : Baudouin d'Aumeries
Co-Programmation & Développement : Marc-Olivier Méhu
Soutien technique & logistique : Manuel Goepfert

Contact : metmap@orbifly.com




SOURCES & CREDITS :

   NOAA